Wolfcreek, Wisconsin
Current Conditions -  °F | °C
As of 10:15 AM on Wednesday 28 Jan 2015 (Local Time) from KOEO Reporting Station
Haze Haze  
Wind Chill: -9°   Ceiling: 800
Heat Index: -3°   Visibility: 5mi
Dew Point: -4°   Wind: 14mph
Humidity: 88%   Direction: 130°SE
Pressure: 30.01"   Gusts: 20mph
Location:  45.4182°N, 92.6295°W
Report Text: KOEO 281615Z AUTO 13012G17KT 5SM BR OVC008 M03/M04 A3001 RMK AO2 T10271044
Loading
Personal Weather Stations






























Interactive Weather Map New forecast layout! Learn more

10-Day Weather Forecast

Advertisements
Track Severe Weather on mobile